createdAt,value
2019-04-14T00:02:47.559Z,101031.89
2019-04-14T00:05:21.075Z,101019.58
2019-04-14T00:07:53.912Z,101019.58
2019-04-14T00:10:26.788Z,101026.74
2019-04-14T00:12:59.972Z,101025.26
2019-04-14T00:15:38.897Z,101018.28
2019-04-14T00:18:07.503Z,101025.55
2019-04-14T00:20:40.482Z,101021.48
2019-04-14T00:23:13.087Z,101021.91
2019-04-14T00:25:45.918Z,101021.91
2019-04-14T00:28:18.489Z,101024.48
2019-04-14T00:30:51.258Z,101017.30
2019-04-14T00:33:24.536Z,101017.30
2019-04-14T00:36:08.746Z,101019.29
2019-04-14T00:38:43.591Z,101020.27
2019-04-14T00:41:52.650Z,101021.41
2019-04-14T00:44:45.614Z,101021.41
2019-04-14T00:47:24.647Z,101012.52
2019-04-14T00:49:57.183Z,101012.52
2019-04-14T00:52:30.038Z,101018.87
2019-04-14T00:55:03.350Z,101016.42
2019-04-14T00:57:37.574Z,101011.38
2019-04-14T01:00:10.385Z,101011.72
2019-04-14T01:02:43.336Z,101009.81
2019-04-14T01:05:15.947Z,101008.88
2019-04-14T01:07:48.344Z,101007.74
2019-04-14T01:10:21.310Z,101004.23
2019-04-14T01:12:53.983Z,101004.40
2019-04-14T01:15:26.760Z,100995.22
2019-04-14T01:17:59.455Z,101002.70
2019-04-14T01:20:31.886Z,101001.05
2019-04-14T01:23:04.330Z,101006.94
2019-04-14T01:25:37.344Z,100999.83
2019-04-14T01:28:09.849Z,101003.25
2019-04-14T01:30:41.908Z,101003.81
2019-04-14T01:33:14.418Z,101006.31
2019-04-14T01:35:48.849Z,100999.83
2019-04-14T01:38:21.448Z,101008.67
2019-04-14T01:40:55.178Z,101007.88
2019-04-14T01:43:27.889Z,101005.03
2019-04-14T01:46:09.571Z,101014.09
2019-04-14T01:48:34.610Z,101016.87
2019-04-14T01:51:24.543Z,101016.87
2019-04-14T01:54:23.544Z,101016.16
2019-04-14T01:57:15.364Z,101010.95
2019-04-14T01:59:48.234Z,101010.95
2019-04-14T02:02:23.390Z,101022.28
2019-04-14T02:04:55.861Z,101021.91
2019-04-14T02:07:29.654Z,101022.15
2019-04-14T02:10:02.355Z,101024.41
2019-04-14T02:12:34.963Z,101023.43
2019-04-14T02:15:09.101Z,101028.42
2019-04-14T02:17:42.334Z,101032.69
2019-04-14T02:20:14.895Z,101028.11
2019-04-14T02:22:48.375Z,101025.55
2019-04-14T02:25:21.050Z,101029.26
2019-04-14T02:27:53.884Z,101029.26
2019-04-14T02:30:34.036Z,101027.69
2019-04-14T02:33:37.094Z,101033.31
2019-04-14T02:36:27.543Z,101027.77
2019-04-14T02:38:52.625Z,101022.48
2019-04-14T02:43:54.556Z,101016.22
2019-04-14T02:46:20.506Z,101024.93
2019-04-14T02:48:58.329Z,101024.55
2019-04-14T02:59:07.526Z,101025.55
2019-04-14T03:02:19.574Z,101025.55
2019-04-14T03:04:15.202Z,101019.36
2019-04-14T03:06:50.655Z,101021.64
2019-04-14T03:09:30.535Z,101018.34
2019-04-14T03:11:54.957Z,101018.09
2019-04-14T03:14:31.014Z,101015.72
2019-04-14T03:17:25.055Z,101018.20
2019-04-14T03:25:22.601Z,101021.27
2019-04-14T03:28:39.802Z,101023.21
2019-04-14T03:37:21.986Z,101005.54
2019-04-14T03:39:03.511Z,101012.14
2019-04-14T03:43:54.916Z,101018.87
2019-04-14T03:49:15.977Z,101022.63
2019-04-14T03:51:53.362Z,101023.13
2019-04-14T03:54:08.465Z,101024.06
2019-04-14T03:56:55.659Z,101024.42
2019-04-14T03:59:28.330Z,101024.42
2019-04-14T04:02:00.983Z,101027.82
2019-04-14T04:04:33.764Z,101030.91
2019-04-14T04:07:06.355Z,101033.39
2019-04-14T04:09:45.363Z,101026.41
2019-04-14T04:12:18.336Z,101010.73
2019-04-14T04:14:51.093Z,101010.73
2019-04-14T04:17:36.438Z,101024.50
2019-04-14T04:20:28.556Z,101026.47
2019-04-14T04:23:26.995Z,101021.34
2019-04-14T04:26:21.291Z,101021.34
2019-04-14T04:29:11.168Z,101032.53
2019-04-14T04:32:12.143Z,101025.41
2019-04-14T04:35:06.541Z,101021.63
2019-04-14T04:37:50.024Z,101025.55
2019-04-14T04:40:25.328Z,101025.55
2019-04-14T04:42:59.105Z,101032.31
2019-04-14T04:45:32.032Z,101028.91
2019-04-14T04:48:04.922Z,101029.17
2019-04-14T04:50:38.868Z,101030.81
2019-04-14T04:53:11.506Z,101035.09
2019-04-14T04:55:43.798Z,101036.67
2019-04-14T04:58:17.286Z,101028.47
2019-04-14T05:00:52.501Z,101035.28
2019-04-14T05:03:25.332Z,101030.29
2019-04-14T05:06:59.048Z,101030.29
2019-04-14T05:09:49.357Z,101040.52
2019-04-14T05:12:52.730Z,101037.01
2019-04-14T05:15:42.425Z,101047.81
2019-04-14T05:18:26.792Z,101050.78
2019-04-14T05:20:59.620Z,101049.14
2019-04-14T05:23:32.103Z,101049.52
2019-04-14T05:26:04.989Z,101050.16
2019-04-14T05:28:37.873Z,101050.95
2019-04-14T05:31:10.320Z,101045.72
2019-04-14T05:33:43.313Z,101046.56
2019-04-14T05:36:17.089Z,101058.61
2019-04-14T05:38:51.676Z,101057.64
2019-04-14T05:41:24.472Z,101056.33
2019-04-14T05:43:59.905Z,101055.23
2019-04-14T05:46:31.727Z,101041.59
2019-04-14T05:49:04.435Z,101041.59
2019-04-14T05:51:37.277Z,101061.42
2019-04-14T05:54:10.333Z,101057.36
2019-04-14T05:56:42.894Z,101061.36
2019-04-14T05:59:15.677Z,101066.05
2019-04-14T06:01:48.769Z,101066.11
2019-04-14T06:04:22.125Z,101067.69
2019-04-14T06:06:54.893Z,101068.78
2019-04-14T06:09:27.588Z,101070.25
2019-04-14T06:11:59.849Z,101055.09
2019-04-14T06:14:32.392Z,101055.09
2019-04-14T06:17:04.928Z,101079.33
2019-04-14T06:19:40.550Z,101075.77
2019-04-14T06:22:11.020Z,101078.14
2019-04-14T06:24:43.089Z,101073.29
2019-04-14T06:27:15.301Z,101079.04
2019-04-14T06:29:49.897Z,101074.88
2019-04-14T06:32:43.827Z,101075.09
2019-04-14T06:35:22.077Z,101079.96
2019-04-14T06:41:02.877Z,101074.59
2019-04-14T06:43:34.897Z,101076.09
2019-04-14T06:46:07.383Z,101078.33
2019-04-14T06:48:39.889Z,101079.17
2019-04-14T06:51:11.921Z,101081.43
2019-04-14T06:53:44.287Z,101085.64
2019-04-14T06:56:16.875Z,101082.80
2019-04-14T06:58:49.492Z,101078.33
2019-04-14T07:01:21.880Z,101088.88
2019-04-14T07:03:54.634Z,101083.44
2019-04-14T07:06:26.713Z,101082.59
2019-04-14T07:08:58.798Z,101085.92
2019-04-14T07:11:31.495Z,101085.30
2019-04-14T07:14:03.895Z,101087.22
2019-04-14T07:16:44.877Z,101087.59
2019-04-14T07:19:17.486Z,101084.52
2019-04-14T07:21:49.793Z,101089.75
2019-04-14T07:24:22.470Z,101091.35
2019-04-14T07:27:32.795Z,101093.47
2019-04-14T07:30:22.505Z,101087.30
2019-04-14T07:33:02.376Z,101091.71
2019-04-14T07:36:02.315Z,101093.88
2019-04-14T07:38:44.910Z,101101.64
2019-04-14T07:41:28.910Z,101100.86
2019-04-14T07:44:39.516Z,101099.80
2019-04-14T07:47:32.836Z,101099.64
2019-04-14T07:50:30.466Z,101099.32
2019-04-14T07:53:15.306Z,101100.32
2019-04-14T07:56:09.284Z,101104.94
2019-04-14T07:59:02.907Z,101103.69
2019-04-14T08:02:10.466Z,101105.92
2019-04-14T08:04:48.200Z,101111.58
2019-04-14T08:07:21.924Z,101118.27
2019-04-14T08:09:57.882Z,101122.20
2019-04-14T08:12:30.109Z,101118.84
2019-04-14T08:15:03.105Z,101121.60
2019-04-14T08:17:36.155Z,101123.30
2019-04-14T08:20:09.369Z,101123.20
2019-04-14T08:22:41.867Z,101120.84
2019-04-14T08:25:14.323Z,101125.88
2019-04-14T08:27:47.559Z,101123.91
2019-04-14T08:30:19.881Z,101111.41
2019-04-14T08:32:53.075Z,101111.41
2019-04-14T08:35:25.654Z,101128.02
2019-04-14T08:38:00.074Z,101122.39
2019-04-14T08:40:32.369Z,101128.19
2019-04-14T08:43:36.358Z,101129.55
2019-04-14T08:46:33.885Z,101133.31
2019-04-14T08:49:17.367Z,101128.83
2019-04-14T08:52:07.419Z,101132.94
2019-04-14T08:54:45.499Z,101131.55
2019-04-14T08:57:34.343Z,101131.44
2019-04-14T09:00:12.790Z,101140.94
2019-04-14T09:03:22.654Z,101135.34
2019-04-14T09:06:13.530Z,101121.34
2019-04-14T09:09:17.019Z,101121.34
2019-04-14T09:11:56.696Z,101136.25
2019-04-14T09:14:28.922Z,101133.27
2019-04-14T09:17:01.375Z,101127.70
2019-04-14T09:19:33.873Z,101135.70
2019-04-14T09:22:06.089Z,101139.83
2019-04-14T09:24:38.696Z,101136.85
2019-04-14T09:27:10.802Z,101135.61
2019-04-14T09:29:42.592Z,101141.45
2019-04-14T09:32:15.614Z,101144.42
2019-04-14T09:34:47.916Z,101135.54
2019-04-14T09:37:21.325Z,101135.54
2019-04-14T09:39:54.377Z,101146.88
2019-04-14T09:42:27.033Z,101149.00
2019-04-14T09:44:59.379Z,101152.80
2019-04-14T09:47:32.331Z,101155.55
2019-04-14T09:50:05.324Z,101162.30
2019-04-14T09:52:37.939Z,101152.00
2019-04-14T09:55:15.431Z,101149.63
2019-04-14T09:57:57.523Z,101152.00
2019-04-14T10:00:30.766Z,101146.20
2019-04-14T10:03:03.850Z,101152.41
2019-04-14T10:05:35.872Z,101149.28
2019-04-14T10:08:08.329Z,101158.23
2019-04-14T10:11:03.679Z,101156.07
2019-04-14T10:13:35.850Z,101156.01
2019-04-14T10:16:08.104Z,101156.72
2019-04-14T10:18:40.385Z,101153.56
2019-04-14T10:21:17.593Z,101162.37
2019-04-14T10:23:46.863Z,101151.59
2019-04-14T10:26:18.915Z,101151.59
2019-04-14T10:28:51.719Z,101164.41
2019-04-14T10:31:23.881Z,101163.60
2019-04-14T10:33:56.922Z,101168.11
2019-04-14T10:36:29.883Z,101167.67
2019-04-14T10:39:02.103Z,101170.17
2019-04-14T10:41:35.280Z,101167.53
2019-04-14T10:44:08.356Z,101171.03
2019-04-14T10:46:40.897Z,101168.52
2019-04-14T10:49:13.327Z,101169.09
2019-04-14T10:51:45.862Z,101164.92
2019-04-14T10:54:17.930Z,101166.22
2019-04-14T10:56:51.454Z,101168.12
2019-04-14T10:59:33.239Z,101168.83
2019-04-14T11:02:05.018Z,101169.47
2019-04-14T11:04:37.388Z,101161.47
2019-04-14T11:07:23.427Z,101159.36
2019-04-14T11:09:55.783Z,101158.58
2019-04-14T11:12:30.997Z,101158.55
2019-04-14T11:15:03.891Z,101159.53
2019-04-14T11:17:37.368Z,101157.02
2019-04-14T11:20:09.862Z,101158.72
2019-04-14T11:22:41.890Z,101155.97
2019-04-14T11:25:13.871Z,101156.41
2019-04-14T11:27:46.024Z,101157.97
2019-04-14T11:30:21.485Z,101155.59
2019-04-14T11:33:15.328Z,101160.23
2019-04-14T11:35:55.308Z,101160.04
2019-04-14T11:38:34.406Z,101162.69
2019-04-14T11:41:10.907Z,101157.77
2019-04-14T11:43:43.289Z,101167.33
2019-04-14T11:46:17.359Z,101169.92
2019-04-14T11:48:49.886Z,101174.94
2019-04-14T11:51:21.898Z,101187.48
2019-04-14T11:53:54.330Z,101181.45
2019-04-14T11:56:26.883Z,101181.45
2019-04-14T11:59:00.313Z,101192.38
2019-04-14T12:01:51.068Z,101183.53
2019-04-14T12:04:30.441Z,101186.36
2019-04-14T12:07:24.376Z,101187.71
2019-04-14T12:10:02.452Z,101191.00
2019-04-14T12:12:35.464Z,101188.21
2019-04-14T12:15:16.208Z,101184.47
2019-04-14T12:17:43.883Z,101182.49
2019-04-14T12:20:16.453Z,101188.92
2019-04-14T12:22:49.097Z,101183.59
2019-04-14T12:25:21.405Z,101187.42
2019-04-14T12:27:53.990Z,101186.05
2019-04-14T12:30:26.898Z,101189.69
2019-04-14T12:32:59.637Z,101192.68
2019-04-14T12:35:30.737Z,101193.63
2019-04-14T12:38:03.099Z,101191.55
2019-04-14T12:40:36.900Z,101183.02
2019-04-14T12:43:30.694Z,101180.30
2019-04-14T12:46:33.907Z,101164.99
2019-04-14T12:49:14.571Z,101164.99
2019-04-14T12:52:05.461Z,101164.57
2019-04-14T12:54:38.075Z,101164.57
2019-04-14T12:57:13.064Z,101176.80
2019-04-14T12:59:44.846Z,101178.61
2019-04-14T13:02:26.094Z,101176.31
2019-04-14T13:04:58.323Z,101175.92
2019-04-14T13:07:30.845Z,101174.28
2019-04-14T13:10:02.841Z,101177.03
2019-04-14T13:12:34.888Z,101176.87
2019-04-14T13:15:07.931Z,101179.67
2019-04-14T13:17:40.015Z,101181.02
2019-04-14T13:20:15.330Z,101182.66
2019-04-14T13:22:47.993Z,101186.03
2019-04-14T13:25:21.758Z,101184.21
2019-04-14T13:27:53.180Z,101191.18
2019-04-14T13:30:29.652Z,101189.69
2019-04-14T13:33:01.817Z,101184.66
2019-04-14T13:35:34.309Z,101184.66
2019-04-14T13:38:06.874Z,101176.75
2019-04-14T13:40:39.859Z,101175.98
2019-04-14T13:43:11.894Z,101175.91
2019-04-14T13:45:43.887Z,101175.52
2019-04-14T13:48:15.909Z,101173.47
2019-04-14T13:50:48.118Z,101166.79
2019-04-14T13:53:20.885Z,101171.14
2019-04-14T13:55:54.653Z,101164.64
2019-04-14T13:58:27.329Z,101152.73
2019-04-14T14:01:00.043Z,101152.73
2019-04-14T14:03:32.327Z,101163.69
2019-04-14T14:06:05.362Z,101164.19
2019-04-14T14:08:37.883Z,101165.84
2019-04-14T14:11:28.864Z,101165.91
2019-04-14T14:14:17.651Z,101167.57
2019-04-14T14:17:06.423Z,101174.32
2019-04-14T14:19:57.907Z,101171.30
2019-04-14T14:23:35.647Z,101170.02
2019-04-14T14:26:10.132Z,101171.43
2019-04-14T14:28:42.392Z,101167.72
2019-04-14T14:31:14.912Z,101164.33
2019-04-14T14:33:47.032Z,101165.08
2019-04-14T14:36:19.326Z,101156.67
2019-04-14T14:38:52.900Z,101157.62
2019-04-14T14:41:25.104Z,101165.16
2019-04-14T14:43:57.465Z,101157.27
2019-04-14T14:46:47.681Z,101153.87
2019-04-14T14:49:24.272Z,101153.89
2019-04-14T14:52:09.089Z,101156.34
2019-04-14T14:54:41.329Z,101160.37
2019-04-14T14:57:13.902Z,101156.22
2019-04-14T14:59:46.055Z,101156.13
2019-04-14T15:02:19.131Z,101162.41
2019-04-14T15:04:52.008Z,101153.02
2019-04-14T15:07:25.481Z,101155.42
2019-04-14T15:09:57.914Z,101157.73
2019-04-14T15:12:31.017Z,101154.38
2019-04-14T15:15:03.325Z,101151.45
2019-04-14T15:17:45.177Z,101158.03
2019-04-14T15:20:17.851Z,101160.99
2019-04-14T15:22:52.291Z,101160.05
2019-04-14T15:25:22.962Z,101156.07
2019-04-14T15:27:55.360Z,101162.20
2019-04-14T15:30:27.887Z,101160.99
2019-04-14T15:32:59.925Z,101163.17
2019-04-14T15:35:31.888Z,101161.81
2019-04-14T15:38:04.342Z,101168.53
2019-04-14T15:40:37.316Z,101158.41
2019-04-14T15:43:10.040Z,101157.85
2019-04-14T15:45:43.441Z,101166.68
2019-04-14T15:48:16.137Z,101162.81
2019-04-14T15:50:48.897Z,101162.81
2019-04-14T15:53:21.375Z,101162.81
2019-04-14T15:55:54.325Z,101165.72
2019-04-14T15:58:48.565Z,101164.84
2019-04-14T16:01:39.313Z,101163.34
2019-04-14T16:04:30.551Z,101163.34
2019-04-14T16:07:26.444Z,101168.72
2019-04-14T16:10:08.815Z,101167.09
2019-04-14T16:12:51.341Z,101165.70
2019-04-14T16:15:52.006Z,101170.08
2019-04-14T16:18:45.831Z,101170.74
2019-04-14T16:21:17.868Z,101170.58
2019-04-14T16:23:51.057Z,101174.30
2019-04-14T16:26:31.853Z,101177.29
2019-04-14T16:29:26.531Z,101177.03
2019-04-14T16:32:07.329Z,101162.01
2019-04-14T16:35:04.638Z,101162.01
2019-04-14T16:37:35.680Z,101175.59
2019-04-14T16:40:07.633Z,101173.05
2019-04-14T16:42:40.171Z,101152.11
2019-04-14T16:45:12.482Z,101152.11
2019-04-14T16:47:45.996Z,101169.78
2019-04-14T16:50:20.099Z,101174.30
2019-04-14T16:53:03.606Z,101175.57
2019-04-14T16:55:57.419Z,101178.22
2019-04-14T16:58:55.115Z,101178.22
2019-04-14T17:01:32.515Z,101182.21
2019-04-14T17:04:04.921Z,101176.41
2019-04-14T17:06:36.886Z,101177.19
2019-04-14T17:09:10.862Z,101177.84
2019-04-14T17:11:43.466Z,101181.28
2019-04-14T17:14:36.187Z,101184.66
2019-04-14T17:17:36.819Z,101186.89
2019-04-14T17:20:22.422Z,101188.40
2019-04-14T17:23:31.921Z,101183.10
2019-04-14T17:26:21.844Z,101191.82
2019-04-14T17:29:22.416Z,101193.32
2019-04-14T17:32:09.985Z,101190.95
2019-04-14T17:35:00.914Z,101199.53
2019-04-14T17:37:54.633Z,101200.94
2019-04-14T17:40:44.264Z,101203.01
2019-04-14T17:43:39.658Z,101199.22
2019-04-14T17:46:22.896Z,101179.97
2019-04-14T17:49:13.569Z,101179.97
2019-04-14T17:52:07.668Z,101189.03
2019-04-14T17:54:48.476Z,101209.36
2019-04-14T17:57:34.948Z,101209.36
2019-04-14T18:00:21.786Z,101207.53
2019-04-14T18:03:12.884Z,101208.95
2019-04-14T18:05:51.840Z,101215.95
2019-04-14T18:08:41.823Z,101216.52
2019-04-14T18:11:51.824Z,101219.53
2019-04-14T18:14:39.667Z,101217.22
2019-04-14T18:17:30.135Z,101228.73
2019-04-14T18:20:08.464Z,101228.73
2019-04-14T18:22:41.100Z,101231.24
2019-04-14T18:25:17.401Z,101231.55
2019-04-14T18:28:09.983Z,101236.38
2019-04-14T18:30:48.323Z,101236.95
2019-04-14T18:33:46.400Z,101249.45
2019-04-14T18:36:29.556Z,101243.43
2019-04-14T18:39:20.487Z,101249.68
2019-04-14T18:42:08.774Z,101249.68
2019-04-14T18:44:49.267Z,101254.60
2019-04-14T18:47:43.721Z,101263.55
2019-04-14T18:50:18.967Z,101265.40
2019-04-14T18:53:19.341Z,101261.52
2019-04-14T18:56:01.469Z,101265.62
2019-04-14T18:58:58.822Z,101267.86
2019-04-14T19:01:34.908Z,101266.95
2019-04-14T19:04:06.918Z,101277.06
2019-04-14T19:06:39.176Z,101273.47
2019-04-14T19:09:12.353Z,101283.58
2019-04-14T19:11:56.769Z,101277.23
2019-04-14T19:14:33.868Z,101281.81
2019-04-14T19:17:11.115Z,101286.85
2019-04-14T19:20:00.589Z,101283.12
2019-04-14T19:22:23.122Z,101290.30
2019-04-14T19:25:07.361Z,101290.64
2019-04-14T19:27:30.503Z,101275.54
2019-04-14T19:30:03.165Z,101275.54
2019-04-14T19:32:36.122Z,101288.27
2019-04-14T19:35:08.873Z,101292.61
2019-04-14T19:37:42.420Z,101288.67
2019-04-14T19:40:15.112Z,101294.28
2019-04-14T19:42:47.994Z,101293.77
2019-04-14T19:45:20.659Z,101295.03
2019-04-14T19:47:53.129Z,101294.56
2019-04-14T19:50:25.881Z,101294.56
2019-04-14T19:53:00.414Z,101307.80
2019-04-14T19:55:32.863Z,101306.38
2019-04-14T19:58:08.320Z,101305.28
2019-04-14T20:00:44.331Z,101308.89
2019-04-14T20:03:16.838Z,101309.84
2019-04-14T20:05:48.896Z,101302.37
2019-04-14T20:08:22.019Z,101310.17
2019-04-14T20:10:59.876Z,101309.97
2019-04-14T20:13:37.606Z,101317.00
2019-04-14T20:16:28.089Z,101322.44
2019-04-14T20:19:11.575Z,101322.44
2019-04-14T20:22:18.326Z,101319.11
2019-04-14T20:24:57.504Z,101319.11
2019-04-14T20:27:36.868Z,101321.92
2019-04-14T20:30:16.392Z,101328.98
2019-04-14T20:32:49.695Z,101336.77
2019-04-14T20:35:21.622Z,101333.30
2019-04-14T20:37:54.856Z,101338.09
2019-04-14T20:40:27.358Z,101341.21
2019-04-14T20:45:46.867Z,101338.63
2019-04-14T20:48:19.067Z,101339.72
2019-04-14T20:50:51.758Z,101338.73
2019-04-14T20:53:25.134Z,101335.91
2019-04-14T20:55:57.335Z,101339.11
2019-04-14T20:58:30.314Z,101340.09
2019-04-14T21:01:04.487Z,101338.70
2019-04-14T21:03:52.699Z,101341.86
2019-04-14T21:06:41.313Z,101341.58
2019-04-14T21:09:26.407Z,101344.50
2019-04-14T21:12:13.901Z,101348.17
2019-04-14T21:15:07.725Z,101351.19
2019-04-14T21:18:03.676Z,101347.92
2019-04-14T21:21:00.398Z,101346.28
2019-04-14T21:23:50.407Z,101346.28
2019-04-14T21:26:37.330Z,101349.84
2019-04-14T21:29:13.850Z,101356.07
2019-04-14T21:31:50.477Z,101359.14
2019-04-14T21:34:56.076Z,101355.54
2019-04-14T21:38:06.665Z,101355.45
2019-04-14T21:40:57.462Z,101342.63
2019-04-14T21:43:30.854Z,101342.63
2019-04-14T21:46:03.079Z,101362.53
2019-04-14T21:48:36.478Z,101365.59
2019-04-14T21:51:09.525Z,101365.59
2019-04-14T21:53:42.334Z,101371.02
2019-04-14T21:56:14.871Z,101369.06
2019-04-14T21:59:02.298Z,101378.64
2019-04-14T22:01:56.333Z,101374.45
2019-04-14T22:05:47.345Z,101373.86
2019-04-14T22:08:25.438Z,101384.94
2019-04-14T22:11:04.402Z,101384.61
2019-04-14T22:13:36.878Z,101384.61
2019-04-14T22:16:11.833Z,101391.61
2019-04-14T22:18:44.889Z,101391.56
2019-04-14T22:21:17.359Z,101392.20
2019-04-14T22:24:00.386Z,101395.55
2019-04-14T22:26:26.256Z,101397.13
2019-04-14T22:28:56.917Z,101396.15
2019-04-14T22:31:29.871Z,101399.16
2019-04-14T22:34:05.628Z,101399.80
2019-04-14T22:36:37.873Z,101388.09
2019-04-14T22:39:14.058Z,101388.09
2019-04-14T22:41:46.849Z,101406.92
2019-04-14T22:44:19.380Z,101405.52
2019-04-14T22:46:52.347Z,101412.01
2019-04-14T22:49:24.960Z,101415.06
2019-04-14T22:51:57.102Z,101415.70
2019-04-14T22:54:30.360Z,101419.64
2019-04-14T22:57:02.906Z,101419.34
2019-04-14T22:59:34.996Z,101415.57
2019-04-14T23:02:19.744Z,101413.37
2019-04-14T23:05:19.772Z,101411.63
2019-04-14T23:08:38.863Z,101425.42
2019-04-14T23:11:37.512Z,101421.30
2019-04-14T23:14:25.517Z,101419.09
2019-04-14T23:17:19.371Z,101422.86
2019-04-14T23:20:10.593Z,101422.73
2019-04-14T23:22:59.393Z,101418.28
2019-04-14T23:25:39.498Z,101418.28
2019-04-14T23:28:15.917Z,101419.00
2019-04-14T23:30:48.060Z,101412.17
2019-04-14T23:33:20.379Z,101419.59
2019-04-14T23:35:53.083Z,101423.71
2019-04-14T23:38:25.872Z,101420.36
2019-04-14T23:40:58.355Z,101423.20
2019-04-14T23:43:30.890Z,101428.58
2019-04-14T23:46:03.357Z,101425.78
2019-04-14T23:48:36.329Z,101435.58
2019-04-14T23:51:09.300Z,101429.81
2019-04-14T23:53:41.852Z,101434.73
2019-04-14T23:56:14.024Z,101429.52
2019-04-14T23:58:46.333Z,101426.80
